Dutch Harbor, AK

11:59 PM AKDT on August 29, 2015 (GMT -0800)
Dutch Harbor | | Change Station
CLOSE
Current Station
Airport
Location: Dutch Harbor,
Elevation: 13 ft
Nearby Weather Stations

Elev 13 ft 53.90 °N, 166.54 °W | Updated 3 minutes ago

Rain
Rain
57 °F
Feels Like 57 °F
N
10
Wind Variable Wind from NNW

Today
High -- | Low -- °F
--% Chance of Precip.
Yesterday
High -- | Low -- °F
Precip. -- in
8:09 AM 10:03 PM
Full, 100% visible
Pressure 29.87 in
Visibility 8.0 miles
Clouds Mostly Cloudy 1600 ft
Overcast 2500 ft
Dew Point 52 °F
Humidity 83%
Rainfall 0.33 in
Snow Depth Not available.
UV 0 out of 12
Pollen Not available.
Air Quality Not available.
Flu Activity Not available.
METAR PADU 300756Z AUTO 33009KT 8SM RA BKN016 OVC025 14/11 A2986 RMK AO2 SLP115 P0016 T01390111
Pressure 29.87 in
Visibility 8.0 miles
Clouds Mostly Cloudy 1600 ft
Overcast 2500 ft
Dew Point 52 °F
Humidity 83%
Rainfall 0.33 in
Snow Depth Not available.
UV 0 out of 12
Pollen Not available.
Air Quality Not available.
Flu Activity Not available.
METAR PADU 300756Z AUTO 33009KT 8SM RA BKN016 OVC025 14/11 A2986 RMK AO2 SLP115 P0016 T01390111

10-Day Weather Forecast

×

Almanac

Astronomy

Aug. 29, 2015 Rise Set
Actual Time
Civil Twilight
Nautical Twilight
Astronomical Twilight
Moon
Length of Visible Light
Length of Day
Tomorrow will be .
, % of the Moon is Illuminated

Today's Extremes

State Highs State Lows

Community

WunderPhotos

Upload Photos

1,850,904 photos uploaded!

WunderBlogs® & News

Nearby

Air Quality

  Air Quality AQ Index Pollutant
Not available.

Snow Depth

Station Depth Elevation

Earthquake Activity

City Distance Mag. Time & Date
Minimum magnitude displayed is 2.5.

Coastal Water Temperatures

Place Temperature

Stations

Nearby Weather Stations

Station Location Temp. Windchill Dew Point Humidity Wind Precip. Elev Updated Type